sensor_id;sensor_type;location;lat;lon;timestamp;temperature;humidity
30678;DHT22;17437;47.188;8.896;2022-10-31T00:02:28;8.70;99.90
30678;DHT22;17437;47.188;8.896;2022-10-31T00:04:59;8.80;99.90
30678;DHT22;17437;47.188;8.896;2022-10-31T00:07:30;8.80;99.90
30678;DHT22;17437;47.188;8.896;2022-10-31T00:10:02;8.80;99.90
30678;DHT22;17437;47.188;8.896;2022-10-31T00:12:33;8.70;99.90
30678;DHT22;17437;47.188;8.896;2022-10-31T00:15:06;8.60;99.90
30678;DHT22;17437;47.188;8.896;2022-10-31T00:17:37;8.50;99.90
30678;DHT22;17437;47.188;8.896;2022-10-31T00:20:10;8.50;99.90
30678;DHT22;17437;47.188;8.896;2022-10-31T00:22:41;8.40;99.90
30678;DHT22;17437;47.188;8.896;2022-10-31T00:25:11;8.50;99.90
30678;DHT22;17437;47.188;8.896;2022-10-31T00:27:42;8.50;99.90
30678;DHT22;17437;47.188;8.896;2022-10-31T00:30:14;8.50;99.90
30678;DHT22;17437;47.188;8.896;2022-10-31T00:32:45;8.40;99.90
30678;DHT22;17437;47.188;8.896;2022-10-31T00:35:17;8.40;99.90
30678;DHT22;17437;47.188;8.896;2022-10-31T00:37:48;8.50;99.90
30678;DHT22;17437;47.188;8.896;2022-10-31T00:40:19;8.50;99.90
30678;DHT22;17437;47.188;8.896;2022-10-31T00:42:50;8.50;99.90
30678;DHT22;17437;47.188;8.896;2022-10-31T00:45:22;8.50;99.90
30678;DHT22;17437;47.188;8.896;2022-10-31T00:47:53;8.40;99.90
30678;DHT22;17437;47.188;8.896;2022-10-31T00:50:24;8.40;99.90
30678;DHT22;17437;47.188;8.896;2022-10-31T00:52:56;8.30;99.90
30678;DHT22;17437;47.188;8.896;2022-10-31T00:55:28;8.30;99.90
30678;DHT22;17437;47.188;8.896;2022-10-31T00:57:59;8.30;99.90
30678;DHT22;17437;47.188;8.896;2022-10-31T01:00:31;8.20;99.90
30678;DHT22;17437;47.188;8.896;2022-10-31T01:05:45;8.20;99.90
30678;DHT22;17437;47.188;8.896;2022-10-31T01:08:16;8.10;99.90
30678;DHT22;17437;47.188;8.896;2022-10-31T01:10:57;8.10;99.90
30678;DHT22;17437;47.188;8.896;2022-10-31T01:13:29;8.10;99.90
30678;DHT22;17437;47.188;8.896;2022-10-31T01:16:01;8.10;99.90
30678;DHT22;17437;47.188;8.896;2022-10-31T01:18:34;8.10;99.90
30678;DHT22;17437;47.188;8.896;2022-10-31T01:21:08;8.00;99.90
30678;DHT22;17437;47.188;8.896;2022-10-31T01:23:39;8.00;99.90
30678;DHT22;17437;47.188;8.896;2022-10-31T01:26:13;8.00;99.90
30678;DHT22;17437;47.188;8.896;2022-10-31T01:28:46;8.00;99.90
30678;DHT22;17437;47.188;8.896;2022-10-31T01:31:20;8.00;99.90
30678;DHT22;17437;47.188;8.896;2022-10-31T01:33:51;8.00;99.90
30678;DHT22;17437;47.188;8.896;2022-10-31T01:36:25;7.90;99.90
30678;DHT22;17437;47.188;8.896;2022-10-31T01:38:58;7.90;99.90
30678;DHT22;17437;47.188;8.896;2022-10-31T01:41:32;7.90;99.90
30678;DHT22;17437;47.188;8.896;2022-10-31T01:46:58;7.90;99.90
30678;DHT22;17437;47.188;8.896;2022-10-31T01:49:33;7.80;99.90
30678;DHT22;17437;47.188;8.896;2022-10-31T01:52:07;7.80;99.90
30678;DHT22;17437;47.188;8.896;2022-10-31T01:54:40;7.80;99.90
30678;DHT22;17437;47.188;8.896;2022-10-31T01:57:14;7.70;99.90
30678;DHT22;17437;47.188;8.896;2022-10-31T01:59:47;7.70;99.90
30678;DHT22;17437;47.188;8.896;2022-10-31T02:02:19;7.70;99.90
30678;DHT22;17437;47.188;8.896;2022-10-31T02:04:51;7.70;99.90
30678;DHT22;17437;47.188;8.896;2022-10-31T02:07:25;7.70;99.90
30678;DHT22;17437;47.188;8.896;2022-10-31T02:09:57;7.70;99.90
30678;DHT22;17437;47.188;8.896;2022-10-31T02:12:30;7.70;99.90
30678;DHT22;17437;47.188;8.896;2022-10-31T02:15:02;7.70;99.90
30678;DHT22;17437;47.188;8.896;2022-10-31T02:17:34;7.70;99.90
30678;DHT22;17437;47.188;8.896;2022-10-31T02:20:11;7.70;99.90
30678;DHT22;17437;47.188;8.896;2022-10-31T02:23:01;7.70;99.90
30678;DHT22;17437;47.188;8.896;2022-10-31T02:25:49;7.70;99.90
30678;DHT22;17437;47.188;8.896;2022-10-31T02:28:42;7.70;99.90
30678;DHT22;17437;47.188;8.896;2022-10-31T02:31:22;7.70;99.90
30678;DHT22;17437;47.188;8.896;2022-10-31T02:33:55;7.70;99.90
30678;DHT22;17437;47.188;8.896;2022-10-31T02:36:32;7.70;99.90
30678;DHT22;17437;47.188;8.896;2022-10-31T02:39:06;7.60;99.90
30678;DHT22;17437;47.188;8.896;2022-10-31T02:41:43;7.60;99.90
30678;DHT22;17437;47.188;8.896;2022-10-31T02:44:19;7.60;99.90
30678;DHT22;17437;47.188;8.896;2022-10-31T02:46:52;7.60;99.90
30678;DHT22;17437;47.188;8.896;2022-10-31T02:49:26;7.60;99.90
30678;DHT22;17437;47.188;8.896;2022-10-31T02:51:58;7.60;99.90
30678;DHT22;17437;47.188;8.896;2022-10-31T02:54:30;7.60;99.90
30678;DHT22;17437;47.188;8.896;2022-10-31T02:57:04;7.70;99.90
30678;DHT22;17437;47.188;8.896;2022-10-31T02:59:38;7.60;99.90
30678;DHT22;17437;47.188;8.896;2022-10-31T03:02:16;7.60;99.90
30678;DHT22;17437;47.188;8.896;2022-10-31T03:04:56;7.60;99.90
30678;DHT22;17437;47.188;8.896;2022-10-31T03:07:33;7.70;99.90
30678;DHT22;17437;47.188;8.896;2022-10-31T03:10:08;7.70;99.90
30678;DHT22;17437;47.188;8.896;2022-10-31T03:12:43;7.70;99.90
30678;DHT22;17437;47.188;8.896;2022-10-31T03:15:19;7.60;99.90
30678;DHT22;17437;47.188;8.896;2022-10-31T03:17:55;7.50;99.90
30678;DHT22;17437;47.188;8.896;2022-10-31T03:20:32;7.40;99.90
30678;DHT22;17437;47.188;8.896;2022-10-31T03:23:05;7.30;99.90
30678;DHT22;17437;47.188;8.896;2022-10-31T03:25:37;7.30;99.90
30678;DHT22;17437;47.188;8.896;2022-10-31T03:28:12;7.30;99.90
30678;DHT22;17437;47.188;8.896;2022-10-31T03:30:46;7.20;99.90
30678;DHT22;17437;47.188;8.896;2022-10-31T03:33:20;7.20;99.90
30678;DHT22;17437;47.188;8.896;2022-10-31T03:35:53;7.10;99.90
30678;DHT22;17437;47.188;8.896;2022-10-31T03:38:26;7.00;99.90
30678;DHT22;17437;47.188;8.896;2022-10-31T03:41:00;6.90;99.90
30678;DHT22;17437;47.188;8.896;2022-10-31T03:43:36;6.90;99.90
30678;DHT22;17437;47.188;8.896;2022-10-31T03:46:06;6.90;99.90
30678;DHT22;17437;47.188;8.896;2022-10-31T03:48:37;6.90;99.90
30678;DHT22;17437;47.188;8.896;2022-10-31T03:51:12;6.90;99.90
30678;DHT22;17437;47.188;8.896;2022-10-31T03:53:45;6.80;99.90
30678;DHT22;17437;47.188;8.896;2022-10-31T03:56:21;6.80;99.90
30678;DHT22;17437;47.188;8.896;2022-10-31T03:58:57;6.80;99.90
30678;DHT22;17437;47.188;8.896;2022-10-31T04:01:28;6.80;99.90
30678;DHT22;17437;47.188;8.896;2022-10-31T04:04:02;6.70;99.90
30678;DHT22;17437;47.188;8.896;2022-10-31T04:06:36;6.80;99.90
30678;DHT22;17437;47.188;8.896;2022-10-31T04:09:09;6.80;99.90
30678;DHT22;17437;47.188;8.896;2022-10-31T04:11:43;6.80;99.90
30678;DHT22;17437;47.188;8.896;2022-10-31T04:14:15;6.80;99.90
30678;DHT22;17437;47.188;8.896;2022-10-31T04:16:47;6.80;99.90
30678;DHT22;17437;47.188;8.896;2022-10-31T04:19:18;6.90;99.90
30678;DHT22;17437;47.188;8.896;2022-10-31T04:21:49;6.80;99.90
30678;DHT22;17437;47.188;8.896;2022-10-31T04:24:19;6.90;99.90
30678;DHT22;17437;47.188;8.896;2022-10-31T04:26:52;6.80;99.90
30678;DHT22;17437;47.188;8.896;2022-10-31T04:29:23;6.90;99.90
30678;DHT22;17437;47.188;8.896;2022-10-31T04:31:55;6.80;99.90
30678;DHT22;17437;47.188;8.896;2022-10-31T04:34:26;6.80;99.90
30678;DHT22;17437;47.188;8.896;2022-10-31T04:36:57;6.80;99.90
30678;DHT22;17437;47.188;8.896;2022-10-31T04:39:28;6.70;99.90
30678;DHT22;17437;47.188;8.896;2022-10-31T04:41:58;6.80;99.90
30678;DHT22;17437;47.188;8.896;2022-10-31T04:44:29;6.70;99.90
30678;DHT22;17437;47.188;8.896;2022-10-31T04:47:00;6.70;99.90
30678;DHT22;17437;47.188;8.896;2022-10-31T04:49:29;6.80;99.90
30678;DHT22;17437;47.188;8.896;2022-10-31T04:51:59;6.80;99.90
30678;DHT22;17437;47.188;8.896;2022-10-31T04:54:29;6.80;99.90
30678;DHT22;17437;47.188;8.896;2022-10-31T04:56:59;6.80;99.90
30678;DHT22;17437;47.188;8.896;2022-10-31T04:59:29;6.80;99.90
30678;DHT22;17437;47.188;8.896;2022-10-31T05:01:59;6.80;99.90
30678;DHT22;17437;47.188;8.896;2022-10-31T05:04:29;6.80;99.90
30678;DHT22;17437;47.188;8.896;2022-10-31T05:06:59;6.80;99.90
30678;DHT22;17437;47.188;8.896;2022-10-31T05:09:29;6.80;99.90
30678;DHT22;17437;47.188;8.896;2022-10-31T05:11:59;6.70;99.90
30678;DHT22;17437;47.188;8.896;2022-10-31T05:14:28;6.70;99.90
30678;DHT22;17437;47.188;8.896;2022-10-31T05:16:58;6.70;99.90
30678;DHT22;17437;47.188;8.896;2022-10-31T05:19:28;6.70;99.90
30678;DHT22;17437;47.188;8.896;2022-10-31T05:21:58;6.70;99.90
30678;DHT22;17437;47.188;8.896;2022-10-31T05:24:27;6.60;99.90
30678;DHT22;17437;47.188;8.896;2022-10-31T05:26:57;6.70;99.90
30678;DHT22;17437;47.188;8.896;2022-10-31T05:29:29;6.70;99.90
30678;DHT22;17437;47.188;8.896;2022-10-31T05:32:01;6.70;99.90
30678;DHT22;17437;47.188;8.896;2022-10-31T05:34:31;6.70;99.90
30678;DHT22;17437;47.188;8.896;2022-10-31T05:37:01;6.70;99.90
30678;DHT22;17437;47.188;8.896;2022-10-31T05:39:31;6.70;99.90
30678;DHT22;17437;47.188;8.896;2022-10-31T05:42:01;6.70;99.90
30678;DHT22;17437;47.188;8.896;2022-10-31T05:44:31;6.70;99.90
30678;DHT22;17437;47.188;8.896;2022-10-31T05:47:01;6.70;99.90
30678;DHT22;17437;47.188;8.896;2022-10-31T05:49:31;6.80;99.90
30678;DHT22;17437;47.188;8.896;2022-10-31T05:52:00;6.90;99.90
30678;DHT22;17437;47.188;8.896;2022-10-31T05:54:30;6.90;99.90
30678;DHT22;17437;47.188;8.896;2022-10-31T05:57:00;7.00;99.90
30678;DHT22;17437;47.188;8.896;2022-10-31T05:59:30;7.10;99.90
30678;DHT22;17437;47.188;8.896;2022-10-31T06:02:00;7.10;99.90
30678;DHT22;17437;47.188;8.896;2022-10-31T06:04:29;7.10;99.90
30678;DHT22;17437;47.188;8.896;2022-10-31T06:07:00;7.10;99.90
30678;DHT22;17437;47.188;8.896;2022-10-31T06:09:30;7.10;99.90
30678;DHT22;17437;47.188;8.896;2022-10-31T06:11:59;7.10;99.90
30678;DHT22;17437;47.188;8.896;2022-10-31T06:14:29;7.10;99.90
30678;DHT22;17437;47.188;8.896;2022-10-31T06:16:59;7.20;99.90
30678;DHT22;17437;47.188;8.896;2022-10-31T06:19:28;7.20;99.90
30678;DHT22;17437;47.188;8.896;2022-10-31T06:21:58;7.20;99.90
30678;DHT22;17437;47.188;8.896;2022-10-31T06:24:28;7.20;99.90
30678;DHT22;17437;47.188;8.896;2022-10-31T06:26:58;7.20;99.90
30678;DHT22;17437;47.188;8.896;2022-10-31T06:29:27;7.20;99.90
30678;DHT22;17437;47.188;8.896;2022-10-31T06:31:57;7.30;99.90
30678;DHT22;17437;47.188;8.896;2022-10-31T06:34:27;7.30;99.90
30678;DHT22;17437;47.188;8.896;2022-10-31T06:36:57;7.30;99.90
30678;DHT22;17437;47.188;8.896;2022-10-31T06:39:26;7.40;99.90
30678;DHT22;17437;47.188;8.896;2022-10-31T06:41:56;7.40;99.90
30678;DHT22;17437;47.188;8.896;2022-10-31T06:44:26;7.40;99.90
30678;DHT22;17437;47.188;8.896;2022-10-31T06:46:56;7.50;99.90
30678;DHT22;17437;47.188;8.896;2022-10-31T06:49:26;7.70;99.90
30678;DHT22;17437;47.188;8.896;2022-10-31T06:51:55;7.90;99.90
30678;DHT22;17437;47.188;8.896;2022-10-31T06:54:25;8.10;99.90
30678;DHT22;17437;47.188;8.896;2022-10-31T06:56:55;8.20;99.90
30678;DHT22;17437;47.188;8.896;2022-10-31T06:59:25;8.40;99.90
30678;DHT22;17437;47.188;8.896;2022-10-31T07:01:54;8.50;99.90
30678;DHT22;17437;47.188;8.896;2022-10-31T07:04:24;8.70;99.90
30678;DHT22;17437;47.188;8.896;2022-10-31T07:06:54;8.80;99.90
30678;DHT22;17437;47.188;8.896;2022-10-31T07:09:24;9.00;99.90
30678;DHT22;17437;47.188;8.896;2022-10-31T07:11:53;9.10;99.90
30678;DHT22;17437;47.188;8.896;2022-10-31T07:14:23;9.20;99.90
30678;DHT22;17437;47.188;8.896;2022-10-31T07:16:53;9.40;99.90
30678;DHT22;17437;47.188;8.896;2022-10-31T07:19:23;9.50;99.90
30678;DHT22;17437;47.188;8.896;2022-10-31T07:21:53;9.60;99.90
30678;DHT22;17437;47.188;8.896;2022-10-31T07:24:22;9.80;99.90
30678;DHT22;17437;47.188;8.896;2022-10-31T07:26:52;9.90;99.90
30678;DHT22;17437;47.188;8.896;2022-10-31T07:29:22;10.10;99.90
30678;DHT22;17437;47.188;8.896;2022-10-31T07:31:52;10.10;99.90
30678;DHT22;17437;47.188;8.896;2022-10-31T07:34:22;10.20;99.90
30678;DHT22;17437;47.188;8.896;2022-10-31T07:36:53;10.40;99.90
30678;DHT22;17437;47.188;8.896;2022-10-31T07:39:28;10.50;99.90
30678;DHT22;17437;47.188;8.896;2022-10-31T07:41:58;10.70;99.90
30678;DHT22;17437;47.188;8.896;2022-10-31T07:44:28;10.70;99.90
30678;DHT22;17437;47.188;8.896;2022-10-31T07:46:58;10.70;99.90
30678;DHT22;17437;47.188;8.896;2022-10-31T07:49:27;10.80;99.90
30678;DHT22;17437;47.188;8.896;2022-10-31T07:51:57;10.90;99.90
30678;DHT22;17437;47.188;8.896;2022-10-31T07:54:27;11.00;99.90
30678;DHT22;17437;47.188;8.896;2022-10-31T07:56:57;11.10;99.90
30678;DHT22;17437;47.188;8.896;2022-10-31T07:59:27;11.20;99.90
30678;DHT22;17437;47.188;8.896;2022-10-31T08:01:57;11.30;99.90
30678;DHT22;17437;47.188;8.896;2022-10-31T08:04:26;11.40;99.90
30678;DHT22;17437;47.188;8.896;2022-10-31T08:06:57;11.40;99.90
30678;DHT22;17437;47.188;8.896;2022-10-31T08:09:27;11.40;99.90
30678;DHT22;17437;47.188;8.896;2022-10-31T08:11:57;11.50;99.90
30678;DHT22;17437;47.188;8.896;2022-10-31T08:14:27;11.50;99.90
30678;DHT22;17437;47.188;8.896;2022-10-31T08:16:57;11.60;99.90
30678;DHT22;17437;47.188;8.896;2022-10-31T08:19:27;11.60;99.90
30678;DHT22;17437;47.188;8.896;2022-10-31T08:21:56;11.70;99.90
30678;DHT22;17437;47.188;8.896;2022-10-31T08:24:27;11.70;99.90
30678;DHT22;17437;47.188;8.896;2022-10-31T08:26:57;11.70;99.90
30678;DHT22;17437;47.188;8.896;2022-10-31T08:29:29;11.60;99.90
30678;DHT22;17437;47.188;8.896;2022-10-31T08:31:58;11.50;99.90
30678;DHT22;17437;47.188;8.896;2022-10-31T08:34:28;11.40;99.90
30678;DHT22;17437;47.188;8.896;2022-10-31T08:36:58;11.30;99.90
30678;DHT22;17437;47.188;8.896;2022-10-31T08:39:28;11.30;99.90
30678;DHT22;17437;47.188;8.896;2022-10-31T08:41:58;11.30;99.90
30678;DHT22;17437;47.188;8.896;2022-10-31T08:44:28;11.40;99.90
30678;DHT22;17437;47.188;8.896;2022-10-31T08:46:58;11.50;99.90
30678;DHT22;17437;47.188;8.896;2022-10-31T08:49:27;11.70;99.90
30678;DHT22;17437;47.188;8.896;2022-10-31T08:51:57;11.80;99.90
30678;DHT22;17437;47.188;8.896;2022-10-31T08:54:27;11.90;99.90
30678;DHT22;17437;47.188;8.896;2022-10-31T08:56:57;12.00;99.90
30678;DHT22;17437;47.188;8.896;2022-10-31T08:59:30;12.20;99.90
30678;DHT22;17437;47.188;8.896;2022-10-31T09:02:00;12.30;99.90
30678;DHT22;17437;47.188;8.896;2022-10-31T09:04:30;12.30;99.90
30678;DHT22;17437;47.188;8.896;2022-10-31T09:06:59;12.30;99.90
30678;DHT22;17437;47.188;8.896;2022-10-31T09:09:31;12.30;99.90
30678;DHT22;17437;47.188;8.896;2022-10-31T09:12:01;12.20;99.90
30678;DHT22;17437;47.188;8.896;2022-10-31T09:14:30;12.20;99.90
30678;DHT22;17437;47.188;8.896;2022-10-31T09:17:00;12.20;99.90
30678;DHT22;17437;47.188;8.896;2022-10-31T09:19:30;12.30;99.90
30678;DHT22;17437;47.188;8.896;2022-10-31T09:22:00;12.40;99.90
30678;DHT22;17437;47.188;8.896;2022-10-31T09:24:29;12.50;99.90
30678;DHT22;17437;47.188;8.896;2022-10-31T09:26:59;12.60;99.90
30678;DHT22;17437;47.188;8.896;2022-10-31T09:29:29;12.80;99.90
30678;DHT22;17437;47.188;8.896;2022-10-31T09:31:59;12.90;99.90
30678;DHT22;17437;47.188;8.896;2022-10-31T09:34:28;12.90;99.90
30678;DHT22;17437;47.188;8.896;2022-10-31T09:36:58;12.90;99.90
30678;DHT22;17437;47.188;8.896;2022-10-31T09:39:28;13.10;99.90
30678;DHT22;17437;47.188;8.896;2022-10-31T09:42:02;13.20;99.90
30678;DHT22;17437;47.188;8.896;2022-10-31T09:44:35;13.30;99.90
30678;DHT22;17437;47.188;8.896;2022-10-31T09:47:06;13.30;99.90
30678;DHT22;17437;47.188;8.896;2022-10-31T09:49:40;13.40;99.90
30678;DHT22;17437;47.188;8.896;2022-10-31T09:52:11;13.50;99.90
30678;DHT22;17437;47.188;8.896;2022-10-31T09:54:43;13.40;99.90
30678;DHT22;17437;47.188;8.896;2022-10-31T09:57:13;13.40;99.90
30678;DHT22;17437;47.188;8.896;2022-10-31T09:59:44;13.50;99.90
30678;DHT22;17437;47.188;8.896;2022-10-31T10:02:17;13.50;99.90
30678;DHT22;17437;47.188;8.896;2022-10-31T10:04:49;13.40;99.90
30678;DHT22;17437;47.188;8.896;2022-10-31T10:07:21;13.50;99.90
30678;DHT22;17437;47.188;8.896;2022-10-31T10:09:51;13.50;99.90
30678;DHT22;17437;47.188;8.896;2022-10-31T10:12:23;13.40;99.90
30678;DHT22;17437;47.188;8.896;2022-10-31T10:15:00;13.40;99.90
30678;DHT22;17437;47.188;8.896;2022-10-31T10:17:32;13.20;99.90
30678;DHT22;17437;47.188;8.896;2022-10-31T10:20:10;13.10;99.90
30678;DHT22;17437;47.188;8.896;2022-10-31T10:22:42;13.00;99.90
30678;DHT22;17437;47.188;8.896;2022-10-31T10:25:15;12.90;99.90
30678;DHT22;17437;47.188;8.896;2022-10-31T10:27:48;12.90;99.90
30678;DHT22;17437;47.188;8.896;2022-10-31T10:30:19;13.00;99.90
30678;DHT22;17437;47.188;8.896;2022-10-31T10:32:51;13.10;99.90
30678;DHT22;17437;47.188;8.896;2022-10-31T10:35:23;13.20;99.90
30678;DHT22;17437;47.188;8.896;2022-10-31T10:37:55;13.00;99.90
30678;DHT22;17437;47.188;8.896;2022-10-31T10:40:26;12.80;99.90
30678;DHT22;17437;47.188;8.896;2022-10-31T10:43:12;12.90;99.90
30678;DHT22;17437;47.188;8.896;2022-10-31T10:45:49;13.00;99.90
30678;DHT22;17437;47.188;8.896;2022-10-31T10:48:43;13.00;99.90
30678;DHT22;17437;47.188;8.896;2022-10-31T10:51:22;12.90;99.90
30678;DHT22;17437;47.188;8.896;2022-10-31T10:53:58;13.00;99.90
30678;DHT22;17437;47.188;8.896;2022-10-31T10:56:36;13.10;99.90
30678;DHT22;17437;47.188;8.896;2022-10-31T10:59:08;13.20;99.90
30678;DHT22;17437;47.188;8.896;2022-10-31T11:01:40;13.40;99.90
30678;DHT22;17437;47.188;8.896;2022-10-31T11:04:20;13.70;99.90
30678;DHT22;17437;47.188;8.896;2022-10-31T11:06:56;13.90;99.90
30678;DHT22;17437;47.188;8.896;2022-10-31T11:09:26;14.10;99.90
30678;DHT22;17437;47.188;8.896;2022-10-31T11:11:56;14.30;99.90
30678;DHT22;17437;47.188;8.896;2022-10-31T11:14:26;14.40;99.90
30678;DHT22;17437;47.188;8.896;2022-10-31T11:17:07;14.50;99.90
30678;DHT22;17437;47.188;8.896;2022-10-31T11:19:38;14.60;99.90
30678;DHT22;17437;47.188;8.896;2022-10-31T11:22:12;14.80;99.90
30678;DHT22;17437;47.188;8.896;2022-10-31T11:24:40;14.80;99.90
30678;DHT22;17437;47.188;8.896;2022-10-31T11:27:12;14.90;99.90
30678;DHT22;17437;47.188;8.896;2022-10-31T11:29:43;14.90;99.90
30678;DHT22;17437;47.188;8.896;2022-10-31T11:32:18;14.90;99.90
30678;DHT22;17437;47.188;8.896;2022-10-31T11:34:49;14.90;99.90
30678;DHT22;17437;47.188;8.896;2022-10-31T11:37:21;14.70;99.90
30678;DHT22;17437;47.188;8.896;2022-10-31T11:39:52;14.70;99.90
30678;DHT22;17437;47.188;8.896;2022-10-31T11:42:23;14.80;99.90
30678;DHT22;17437;47.188;8.896;2022-10-31T11:44:53;14.80;99.90
30678;DHT22;17437;47.188;8.896;2022-10-31T11:47:28;14.90;99.90
30678;DHT22;17437;47.188;8.896;2022-10-31T11:49:56;15.10;99.90
30678;DHT22;17437;47.188;8.896;2022-10-31T11:52:28;15.20;99.90
30678;DHT22;17437;47.188;8.896;2022-10-31T11:55:01;15.20;99.90
30678;DHT22;17437;47.188;8.896;2022-10-31T11:57:32;15.10;99.90
30678;DHT22;17437;47.188;8.896;2022-10-31T12:00:03;14.90;99.90
30678;DHT22;17437;47.188;8.896;2022-10-31T12:02:33;14.80;99.90
30678;DHT22;17437;47.188;8.896;2022-10-31T12:05:04;14.90;99.90
30678;DHT22;17437;47.188;8.896;2022-10-31T12:07:35;15.10;99.90
30678;DHT22;17437;47.188;8.896;2022-10-31T12:10:09;15.20;99.90
30678;DHT22;17437;47.188;8.896;2022-10-31T12:12:43;15.40;99.90
30678;DHT22;17437;47.188;8.896;2022-10-31T12:18:28;15.30;99.90
30678;DHT22;17437;47.188;8.896;2022-10-31T12:21:04;15.30;99.90
30678;DHT22;17437;47.188;8.896;2022-10-31T12:23:42;15.20;99.90
30678;DHT22;17437;47.188;8.896;2022-10-31T12:26:09;15.10;99.90
30678;DHT22;17437;47.188;8.896;2022-10-31T12:28:43;14.90;99.90
30678;DHT22;17437;47.188;8.896;2022-10-31T12:31:22;14.80;99.90
30678;DHT22;17437;47.188;8.896;2022-10-31T12:33:54;14.70;99.90
30678;DHT22;17437;47.188;8.896;2022-10-31T12:36:29;14.60;99.90
30678;DHT22;17437;47.188;8.896;2022-10-31T12:39:05;14.50;99.90
30678;DHT22;17437;47.188;8.896;2022-10-31T12:41:39;14.40;99.90
30678;DHT22;17437;47.188;8.896;2022-10-31T12:44:12;14.40;99.90
30678;DHT22;17437;47.188;8.896;2022-10-31T12:46:46;14.50;99.90
30678;DHT22;17437;47.188;8.896;2022-10-31T12:49:24;14.50;99.90
30678;DHT22;17437;47.188;8.896;2022-10-31T12:52:03;14.60;99.90
30678;DHT22;17437;47.188;8.896;2022-10-31T12:54:33;14.60;99.90
30678;DHT22;17437;47.188;8.896;2022-10-31T12:57:05;14.60;99.90
30678;DHT22;17437;47.188;8.896;2022-10-31T12:59:36;14.60;99.90
30678;DHT22;17437;47.188;8.896;2022-10-31T13:02:10;14.50;99.90
30678;DHT22;17437;47.188;8.896;2022-10-31T13:04:42;14.60;99.90
30678;DHT22;17437;47.188;8.896;2022-10-31T13:07:13;14.50;99.90
30678;DHT22;17437;47.188;8.896;2022-10-31T13:09:45;14.60;99.90
30678;DHT22;17437;47.188;8.896;2022-10-31T13:12:17;14.60;99.90
30678;DHT22;17437;47.188;8.896;2022-10-31T13:14:48;14.60;99.90
30678;DHT22;17437;47.188;8.896;2022-10-31T13:17:20;14.70;99.90
30678;DHT22;17437;47.188;8.896;2022-10-31T13:19:51;14.60;99.90
30678;DHT22;17437;47.188;8.896;2022-10-31T13:22:24;14.60;99.90
30678;DHT22;17437;47.188;8.896;2022-10-31T13:24:55;14.60;99.90
30678;DHT22;17437;47.188;8.896;2022-10-31T13:27:26;14.60;99.90
30678;DHT22;17437;47.188;8.896;2022-10-31T13:30:00;14.70;99.90
30678;DHT22;17437;47.188;8.896;2022-10-31T13:32:38;14.70;99.90
30678;DHT22;17437;47.188;8.896;2022-10-31T13:35:03;14.70;99.90
30678;DHT22;17437;47.188;8.896;2022-10-31T13:37:35;14.60;99.90
30678;DHT22;17437;47.188;8.896;2022-10-31T13:40:09;14.70;99.90
30678;DHT22;17437;47.188;8.896;2022-10-31T13:42:45;14.70;99.90
30678;DHT22;17437;47.188;8.896;2022-10-31T13:45:15;14.80;99.90
30678;DHT22;17437;47.188;8.896;2022-10-31T13:47:55;14.80;99.90
30678;DHT22;17437;47.188;8.896;2022-10-31T13:50:26;14.80;99.90
30678;DHT22;17437;47.188;8.896;2022-10-31T13:53:13;14.80;99.90
30678;DHT22;17437;47.188;8.896;2022-10-31T13:55:44;14.90;99.90
30678;DHT22;17437;47.188;8.896;2022-10-31T13:58:20;14.90;99.90
30678;DHT22;17437;47.188;8.896;2022-10-31T14:01:11;14.90;99.90
30678;DHT22;17437;47.188;8.896;2022-10-31T14:03:44;15.00;99.90
30678;DHT22;17437;47.188;8.896;2022-10-31T14:06:19;15.00;99.90
30678;DHT22;17437;47.188;8.896;2022-10-31T14:08:49;15.00;99.90
30678;DHT22;17437;47.188;8.896;2022-10-31T14:11:21;15.00;99.90
30678;DHT22;17437;47.188;8.896;2022-10-31T14:13:51;15.00;99.90
30678;DHT22;17437;47.188;8.896;2022-10-31T14:16:23;15.10;99.90
30678;DHT22;17437;47.188;8.896;2022-10-31T14:18:57;15.10;99.90
30678;DHT22;17437;47.188;8.896;2022-10-31T14:21:28;15.10;99.90
30678;DHT22;17437;47.188;8.896;2022-10-31T14:23:58;15.10;99.90
30678;DHT22;17437;47.188;8.896;2022-10-31T14:26:32;15.10;99.90
30678;DHT22;17437;47.188;8.896;2022-10-31T14:29:20;15.10;99.90
30678;DHT22;17437;47.188;8.896;2022-10-31T14:31:52;15.10;99.90
30678;DHT22;17437;47.188;8.896;2022-10-31T14:34:23;15.20;99.90
30678;DHT22;17437;47.188;8.896;2022-10-31T14:37:01;15.20;99.90
30678;DHT22;17437;47.188;8.896;2022-10-31T14:39:31;15.20;99.90
30678;DHT22;17437;47.188;8.896;2022-10-31T14:42:06;15.20;99.90
30678;DHT22;17437;47.188;8.896;2022-10-31T14:44:49;15.20;99.90
30678;DHT22;17437;47.188;8.896;2022-10-31T14:47:21;15.20;99.90
30678;DHT22;17437;47.188;8.896;2022-10-31T14:50:01;15.10;99.90
30678;DHT22;17437;47.188;8.896;2022-10-31T14:52:29;15.00;99.90
30678;DHT22;17437;47.188;8.896;2022-10-31T14:54:59;15.00;99.90
30678;DHT22;17437;47.188;8.896;2022-10-31T14:57:31;14.80;99.90
30678;DHT22;17437;47.188;8.896;2022-10-31T15:00:03;14.70;99.90
30678;DHT22;17437;47.188;8.896;2022-10-31T15:02:34;14.60;99.90
30678;DHT22;17437;47.188;8.896;2022-10-31T15:05:07;14.50;99.90
30678;DHT22;17437;47.188;8.896;2022-10-31T15:07:47;14.50;99.90
30678;DHT22;17437;47.188;8.896;2022-10-31T15:10:19;14.40;99.90
30678;DHT22;17437;47.188;8.896;2022-10-31T15:12:47;14.40;99.90
30678;DHT22;17437;47.188;8.896;2022-10-31T15:15:18;14.40;99.90
30678;DHT22;17437;47.188;8.896;2022-10-31T15:17:51;14.30;99.90
30678;DHT22;17437;47.188;8.896;2022-10-31T15:20:21;14.30;99.90
30678;DHT22;17437;47.188;8.896;2022-10-31T15:22:53;14.20;99.90
30678;DHT22;17437;47.188;8.896;2022-10-31T15:25:24;14.20;99.90
30678;DHT22;17437;47.188;8.896;2022-10-31T15:27:54;14.20;99.90
30678;DHT22;17437;47.188;8.896;2022-10-31T15:30:25;14.10;99.90
30678;DHT22;17437;47.188;8.896;2022-10-31T15:32:55;14.00;99.90
30678;DHT22;17437;47.188;8.896;2022-10-31T15:35:27;13.90;99.90
30678;DHT22;17437;47.188;8.896;2022-10-31T15:37:57;13.80;99.90
30678;DHT22;17437;47.188;8.896;2022-10-31T15:40:30;13.60;99.90
30678;DHT22;17437;47.188;8.896;2022-10-31T15:43:01;13.50;99.90
30678;DHT22;17437;47.188;8.896;2022-10-31T15:45:32;13.50;99.90
30678;DHT22;17437;47.188;8.896;2022-10-31T15:48:02;13.40;99.90
30678;DHT22;17437;47.188;8.896;2022-10-31T15:50:34;13.30;99.90
30678;DHT22;17437;47.188;8.896;2022-10-31T15:53:06;13.20;99.90
30678;DHT22;17437;47.188;8.896;2022-10-31T15:55:36;13.10;99.90
30678;DHT22;17437;47.188;8.896;2022-10-31T15:58:10;13.00;99.90
30678;DHT22;17437;47.188;8.896;2022-10-31T16:00:41;12.90;99.90
30678;DHT22;17437;47.188;8.896;2022-10-31T16:03:20;12.80;99.90
30678;DHT22;17437;47.188;8.896;2022-10-31T16:05:53;12.70;99.90
30678;DHT22;17437;47.188;8.896;2022-10-31T16:08:24;12.60;99.90
30678;DHT22;17437;47.188;8.896;2022-10-31T16:10:54;12.50;99.90
30678;DHT22;17437;47.188;8.896;2022-10-31T16:13:25;12.50;99.90
30678;DHT22;17437;47.188;8.896;2022-10-31T16:15:56;12.40;99.90
30678;DHT22;17437;47.188;8.896;2022-10-31T16:18:29;12.30;99.90